Time;durP1;ratioP1;P1;durP2;ratioP2;P2;SDS_P1;SDS_P2;PMS_P1;PMS_P2;Temp;Humidity;BMP_temperature;BMP_pressure;BME280_temperature;BME280_humidity;BME280_pressure;Samples;Min_cycle;Max_cycle;Signal;HPM_P1;HPM_P2
2023/05/14 00:00:22;;;;;;;20.70;9.20;;;10.90;99.90;;;;;;4881658;29;20055;-81
2023/05/14 00:02:49;;;;;;;21.42;9.35;;;10.90;99.90;;;;;;4880394;29;20056;-81
2023/05/14 00:05:16;;;;;;;22.70;9.32;;;10.80;99.90;;;;;;4880412;29;20048;-81
2023/05/14 00:07:43;;;;;;;22.13;8.98;;;10.80;99.90;;;;;;4881544;29;20105;-81
2023/05/14 00:10:10;;;;;;;18.15;7.95;;;10.80;99.90;;;;;;4895555;29;20052;-80
2023/05/14 00:12:36;;;;;;;21.10;9.10;;;10.90;99.90;;;;;;4882614;29;20497;-81
2023/05/14 00:15:03;;;;;;;21.50;9.73;;;10.90;99.90;;;;;;4882557;29;20071;-81
2023/05/14 00:17:30;;;;;;;21.67;9.48;;;10.80;99.90;;;;;;4882861;29;20053;-80
2023/05/14 00:19:58;;;;;;;21.33;9.45;;;10.80;99.90;;;;;;4897697;29;20045;-80
2023/05/14 00:22:24;;;;;;;21.35;9.45;;;10.90;99.90;;;;;;4880013;29;20049;-80
2023/05/14 00:24:51;;;;;;;21.98;9.35;;;10.90;99.90;;;;;;4880016;29;20060;-80
2023/05/14 00:27:18;;;;;;;19.02;8.43;;;10.80;99.90;;;;;;4896370;29;20045;-81
2023/05/14 00:29:44;;;;;;;23.95;9.75;;;10.80;99.90;;;;;;4879651;29;20143;-80
2023/05/14 00:32:11;;;;;;;22.27;9.98;;;10.80;99.90;;;;;;4880192;29;20043;-81
2023/05/14 00:34:38;;;;;;;21.95;9.18;;;10.60;99.90;;;;;;4896426;29;20041;-80
2023/05/14 00:37:04;;;;;;;28.15;11.13;;;10.60;99.90;;;;;;4895240;29;20076;-81
2023/05/14 00:39:31;;;;;;;20.80;10.40;;;10.60;99.90;;;;;;4880211;29;20060;-81
2023/05/14 00:41:58;;;;;;;28.15;12.43;;;10.70;99.90;;;;;;4879696;29;20041;-81
2023/05/14 00:44:24;;;;;;;21.65;10.13;;;10.70;99.90;;;;;;4895498;29;20445;-81
2023/05/14 00:46:51;;;;;;;23.25;10.25;;;10.70;99.90;;;;;;4895512;29;20045;-81
2023/05/14 00:49:18;;;;;;;23.67;10.00;;;10.70;99.90;;;;;;4877979;29;20080;-81
2023/05/14 00:51:45;;;;;;;24.40;9.27;;;10.80;99.90;;;;;;4893244;29;20052;-81
2023/05/14 00:54:12;;;;;;;21.20;9.75;;;10.80;99.90;;;;;;4879473;29;20060;-81
2023/05/14 00:56:40;;;;;;;21.67;9.32;;;10.90;99.90;;;;;;4894517;29;20048;-81
2023/05/14 00:59:07;;;;;;;23.38;10.75;;;11.00;99.90;;;;;;4879889;29;20049;-81
2023/05/14 01:01:33;;;;;;;23.60;11.15;;;11.00;99.90;;;;;;4895295;29;20393;-81
2023/05/14 01:04:00;;;;;;;20.73;9.63;;;10.90;99.90;;;;;;4878509;29;20147;-81
2023/05/14 01:06:27;;;;;;;24.38;9.27;;;10.90;99.90;;;;;;4895327;29;20127;-81
2023/05/14 01:08:54;;;;;;;22.90;9.70;;;11.00;99.90;;;;;;4894371;29;20045;-81
2023/05/14 01:11:21;;;;;;;21.30;9.40;;;10.90;99.90;;;;;;4895299;29;20057;-81
2023/05/14 01:13:47;;;;;;;26.45;11.13;;;10.90;99.90;;;;;;4879316;29;20045;-81
2023/05/14 01:16:14;;;;;;;23.65;10.48;;;10.90;99.90;;;;;;4879721;29;20045;-81
2023/05/14 01:18:41;;;;;;;24.02;10.40;;;10.90;99.90;;;;;;4880576;29;20087;-81
2023/05/14 01:21:08;;;;;;;22.48;9.70;;;10.80;99.90;;;;;;4879607;29;20052;-81
2023/05/14 01:23:34;;;;;;;22.25;9.82;;;10.80;99.90;;;;;;4879230;29;20045;-81
2023/05/14 01:26:01;;;;;;;23.58;10.85;;;10.80;99.90;;;;;;4879705;29;20045;-81
2023/05/14 01:28:28;;;;;;;25.20;10.20;;;10.70;99.90;;;;;;4894230;29;20124;-81
2023/05/14 01:30:55;;;;;;;21.80;9.65;;;10.70;99.90;;;;;;4879568;29;20049;-81
2023/05/14 01:33:21;;;;;;;25.45;10.00;;;10.60;99.90;;;;;;4894637;29;20433;-81
2023/05/14 01:35:48;;;;;;;21.27;9.77;;;10.60;99.90;;;;;;4894319;29;20068;-81
2023/05/14 01:38:15;;;;;;;22.52;9.60;;;10.70;99.90;;;;;;4898921;29;20040;-81
2023/05/14 01:40:42;;;;;;;20.70;10.10;;;10.70;99.90;;;;;;4883212;29;20380;-81
2023/05/14 01:43:08;;;;;;;27.17;10.68;;;10.70;99.90;;;;;;4897362;29;20143;-81
2023/05/14 01:45:35;;;;;;;27.50;11.80;;;10.70;99.90;;;;;;4883107;29;20421;-81
2023/05/14 01:48:02;;;;;;;21.48;9.38;;;10.70;99.90;;;;;;4883010;29;20049;-81
2023/05/14 01:50:29;;;;;;;23.10;10.73;;;10.60;99.90;;;;;;4881999;29;20474;-81
2023/05/14 01:52:55;;;;;;;24.02;10.68;;;10.60;99.90;;;;;;4898202;29;20053;-81
2023/05/14 01:55:23;;;;;;;21.50;10.52;;;10.50;99.90;;;;;;4883040;29;20056;-81
2023/05/14 01:57:50;;;;;;;22.05;9.85;;;10.50;99.90;;;;;;4898304;29;20511;-81
2023/05/14 02:00:16;;;;;;;24.35;10.93;;;10.60;99.90;;;;;;4883013;29;20045;-81
2023/05/14 02:02:43;;;;;;;26.50;10.57;;;10.50;99.90;;;;;;4882600;29;20445;-81
2023/05/14 02:05:11;;;;;;;24.88;11.10;;;10.50;99.90;;;;;;4898514;29;20137;-81
2023/05/14 02:07:37;;;;;;;25.77;10.75;;;10.50;99.90;;;;;;4882702;29;20045;-81
2023/05/14 02:10:04;;;;;;;27.90;10.65;;;10.50;99.90;;;;;;4897427;29;20049;-81
2023/05/14 02:12:31;;;;;;;21.90;10.45;;;10.50;99.90;;;;;;4897935;29;20059;-81
2023/05/14 02:14:57;;;;;;;30.70;11.82;;;10.60;99.90;;;;;;4883668;29;20037;-81
2023/05/14 02:17:24;;;;;;;26.42;10.73;;;10.50;99.90;;;;;;4897236;29;20040;-81
2023/05/14 02:19:51;;;;;;;27.65;11.82;;;10.50;99.90;;;;;;4883781;29;20041;-81
2023/05/14 02:22:18;;;;;;;26.27;11.75;;;10.50;99.90;;;;;;4897049;29;20061;-81
2023/05/14 02:24:45;;;;;;;28.23;11.40;;;10.50;99.90;;;;;;4898230;29;20376;-81
2023/05/14 02:27:12;;;;;;;24.52;10.85;;;10.40;99.90;;;;;;4898045;29;20131;-81
2023/05/14 02:29:38;;;;;;;26.58;11.32;;;10.40;99.90;;;;;;4881406;29;20051;-82
2023/05/14 02:32:05;;;;;;;25.17;10.80;;;10.40;99.90;;;;;;4897636;29;20470;-81
2023/05/14 02:34:33;;;;;;;25.35;10.68;;;10.30;99.90;;;;;;4897921;29;20483;-81
2023/05/14 02:37:00;;;;;;;25.58;10.82;;;10.30;99.90;;;;;;4882295;29;20380;-81
2023/05/14 02:39:26;;;;;;;19.95;9.35;;;10.30;99.90;;;;;;4883169;29;20056;-81
2023/05/14 02:41:53;;;;;;;28.00;10.65;;;10.30;99.90;;;;;;4880723;29;20057;-82
2023/05/14 02:44:20;;;;;;;22.20;9.55;;;10.20;99.90;;;;;;4883073;29;20048;-81
2023/05/14 02:46:46;;;;;;;25.65;10.48;;;10.30;99.90;;;;;;4882113;29;20055;-82
2023/05/14 02:49:13;;;;;;;22.65;10.60;;;10.30;99.90;;;;;;4881280;29;20440;-81
2023/05/14 02:51:40;;;;;;;28.38;10.90;;;10.30;99.90;;;;;;4897500;29;20207;-81
2023/05/14 02:54:06;;;;;;;28.02;11.05;;;10.30;99.90;;;;;;4882758;29;20053;-81
2023/05/14 02:56:33;;;;;;;23.50;10.88;;;10.30;99.90;;;;;;4896559;29;20053;-81
2023/05/14 02:59:00;;;;;;;24.92;10.82;;;10.30;99.90;;;;;;4881909;29;20059;-81
2023/05/14 03:01:27;;;;;;;31.70;12.35;;;10.20;99.90;;;;;;4881624;29;20060;-81
2023/05/14 03:03:54;;;;;;;26.15;10.68;;;10.30;99.90;;;;;;4881450;29;20056;-81
2023/05/14 03:06:21;;;;;;;29.33;11.65;;;10.20;99.90;;;;;;4881722;29;20045;-81
2023/05/14 03:08:48;;;;;;;24.65;10.55;;;10.20;99.90;;;;;;4881695;29;20041;-81
2023/05/14 03:11:14;;;;;;;26.50;10.32;;;10.20;99.90;;;;;;4897339;29;20053;-81
2023/05/14 03:13:41;;;;;;;24.48;9.90;;;10.20;99.90;;;;;;4897005;29;20361;-82
2023/05/14 03:16:08;;;;;;;28.25;10.77;;;10.20;99.90;;;;;;4896357;29;20508;-81
2023/05/14 03:18:35;;;;;;;27.38;11.00;;;10.20;99.90;;;;;;4881610;29;20040;-81
2023/05/14 03:21:02;;;;;;;27.85;11.48;;;10.30;99.90;;;;;;4881796;29;20052;-81
2023/05/14 03:23:30;;;;;;;33.15;10.48;;;10.30;99.90;;;;;;4880549;29;20056;-81
2023/05/14 03:25:58;;;;;;;30.48;11.30;;;10.30;99.90;;;;;;4896903;29;20076;-81
2023/05/14 03:28:25;;;;;;;24.75;10.20;;;10.30;99.90;;;;;;4896017;29;20105;-81
2023/05/14 03:30:51;;;;;;;25.48;9.88;;;10.20;99.90;;;;;;4881287;29;20069;-81
2023/05/14 03:33:18;;;;;;;29.15;11.98;;;10.20;99.90;;;;;;4881900;29;20048;-81
2023/05/14 03:35:45;;;;;;;29.00;11.93;;;10.20;99.90;;;;;;4880175;29;20045;-81
2023/05/14 03:38:11;;;;;;;26.25;11.10;;;10.10;99.90;;;;;;4896663;29;20045;-81
2023/05/14 03:40:38;;;;;;;28.63;11.65;;;10.10;99.90;;;;;;4882130;29;20051;-81
2023/05/14 03:43:05;;;;;;;26.35;11.73;;;10.20;99.90;;;;;;4879961;29;20055;-81
2023/05/14 03:45:31;;;;;;;30.70;12.48;;;10.20;99.90;;;;;;4896682;29;20056;-81
2023/05/14 03:47:58;;;;;;;30.15;12.10;;;10.20;99.90;;;;;;4881895;29;20350;-81
2023/05/14 03:50:25;;;;;;;29.60;11.52;;;10.20;99.90;;;;;;4895502;29;20140;-82
2023/05/14 03:52:52;;;;;;;27.67;11.70;;;10.20;99.90;;;;;;4896127;29;20417;-81
2023/05/14 03:55:19;;;;;;;29.23;11.75;;;10.20;99.90;;;;;;4879828;29;20056;-81
2023/05/14 03:57:45;;;;;;;32.20;12.15;;;10.10;99.90;;;;;;4896575;29;20059;-81
2023/05/14 04:00:12;;;;;;;27.13;11.20;;;10.20;99.90;;;;;;4896276;29;20056;-81
2023/05/14 04:02:45;;;;;;;25.10;10.82;;;10.20;99.90;;;;;;4880085;29;20117;-81
2023/05/14 04:05:12;;;;;;;35.38;11.32;;;10.30;99.90;;;;;;4896206;29;20121;-81
2023/05/14 04:07:38;;;;;;;29.40;11.48;;;10.40;99.90;;;;;;4880583;29;20428;-81
2023/05/14 04:10:05;;;;;;;27.67;11.80;;;10.40;99.90;;;;;;4879269;29;20440;-81
2023/05/14 04:12:34;;;;;;;32.60;12.57;;;10.30;99.90;;;;;;4880280;29;20069;-81
2023/05/14 04:15:01;;;;;;;29.73;11.35;;;10.30;99.90;;;;;;4896190;29;20473;-81
2023/05/14 04:17:28;;;;;;;29.35;11.55;;;10.30;99.90;;;;;;4895379;29;20052;-81
2023/05/14 04:19:55;;;;;;;31.17;13.18;;;10.30;99.90;;;;;;4896201;29;20116;-82
2023/05/14 04:22:23;;;;;;;28.50;12.15;;;10.20;99.90;;;;;;4894673;29;20140;-81
2023/05/14 04:24:50;;;;;;;30.45;12.30;;;10.20;99.90;;;;;;4881492;29;20045;-81
2023/05/14 04:27:17;;;;;;;35.95;12.48;;;10.30;99.90;;;;;;4880500;29;20057;-81
2023/05/14 04:29:44;;;;;;;31.40;12.85;;;10.20;99.90;;;;;;4880246;29;20044;-82
2023/05/14 04:32:11;;;;;;;27.80;11.77;;;10.20;99.90;;;;;;4879726;29;20065;-81
2023/05/14 04:34:37;;;;;;;31.52;12.15;;;10.20;99.90;;;;;;4895837;29;20049;-81
2023/05/14 04:37:04;;;;;;;33.95;11.77;;;10.20;99.90;;;;;;4894815;29;20052;-81
2023/05/14 04:39:30;;;;;;;31.00;12.80;;;10.20;99.90;;;;;;4895723;29;20088;-81
2023/05/14 04:41:57;;;;;;;28.45;11.82;;;10.20;99.90;;;;;;4879769;29;20465;-81
2023/05/14 04:44:25;;;;;;;32.83;11.77;;;10.20;99.90;;;;;;4880025;29;20063;-81
2023/05/14 04:46:51;;;;;;;28.42;12.57;;;10.20;99.90;;;;;;4895445;29;20412;-81
2023/05/14 04:49:19;;;;;;;33.38;11.38;;;10.20;99.90;;;;;;4894636;29;20045;-81
2023/05/14 04:51:47;;;;;;;32.20;12.20;;;10.20;99.90;;;;;;4879755;29;20045;-81
2023/05/14 04:54:13;;;;;;;35.67;12.40;;;10.10;99.90;;;;;;4895495;29;20049;-81
2023/05/14 04:56:40;;;;;;;36.08;12.80;;;10.10;99.90;;;;;;4894545;29;20037;-81
2023/05/14 04:59:06;;;;;;;32.03;12.52;;;10.10;99.90;;;;;;4895344;29;20075;-82
2023/05/14 05:01:33;;;;;;;34.05;13.25;;;10.10;99.90;;;;;;4893138;29;20369;-81
2023/05/14 05:04:00;;;;;;;30.85;13.25;;;10.20;99.90;;;;;;4893987;29;20052;-82
2023/05/14 05:06:27;;;;;;;36.25;13.07;;;10.10;99.90;;;;;;4881005;29;20045;-81
2023/05/14 05:08:53;;;;;;;33.38;13.13;;;10.10;99.90;;;;;;4894675;29;20060;-81
2023/05/14 05:11:20;;;;;;;38.28;13.43;;;10.20;99.90;;;;;;4898213;29;20410;-82
2023/05/14 05:13:46;;;;;;;36.75;12.65;;;10.20;99.90;;;;;;4901416;29;20047;-82
2023/05/14 05:16:14;;;;;;;33.92;12.48;;;10.20;99.90;;;;;;4900781;29;20057;-82
2023/05/14 05:18:43;;;;;;;34.70;12.95;;;10.20;99.90;;;;;;4886050;29;20547;-82
2023/05/14 05:21:10;;;;;;;36.05;12.02;;;10.20;99.90;;;;;;4901607;29;20472;-82
2023/05/14 05:23:36;;;;;;;33.55;12.50;;;10.20;99.90;;;;;;4884652;29;20053;-82
2023/05/14 05:26:03;;;;;;;31.88;12.50;;;10.20;99.90;;;;;;4885859;29;20380;-82
2023/05/14 05:28:30;;;;;;;40.53;12.73;;;10.20;99.90;;;;;;4885826;29;20041;-80
2023/05/14 05:30:56;;;;;;;31.45;11.77;;;10.20;99.90;;;;;;4886961;29;20040;-83
2023/05/14 05:33:23;;;;;;;33.40;12.30;;;10.30;99.90;;;;;;4885579;29;20059;-80
2023/05/14 05:35:51;;;;;;;30.17;12.93;;;10.20;99.90;;;;;;4884899;29;20081;-82
2023/05/14 05:38:18;;;;;;;38.08;13.68;;;10.20;99.90;;;;;;4901456;29;20377;-83
2023/05/14 05:40:44;;;;;;;30.67;12.43;;;10.10;99.90;;;;;;4886571;29;20465;-81
2023/05/14 05:43:12;;;;;;;30.42;12.45;;;10.20;99.90;;;;;;4900053;29;20059;-80
2023/05/14 05:45:39;;;;;;;28.33;11.98;;;10.20;99.90;;;;;;4901323;29;20468;-80
2023/05/14 05:48:06;;;;;;;33.15;12.27;;;10.20;99.90;;;;;;4885838;29;20059;-80
2023/05/14 05:50:33;;;;;;;29.65;13.10;;;10.20;99.90;;;;;;4885682;29;20495;-80
2023/05/14 05:52:59;;;;;;;31.00;11.60;;;10.10;99.90;;;;;;4900510;29;20105;-81
2023/05/14 05:55:26;;;;;;;30.48;12.05;;;10.10;99.90;;;;;;4900184;29;20051;-83
2023/05/14 05:57:54;;;;;;;33.20;11.98;;;10.20;99.90;;;;;;4886489;29;20052;-83
2023/05/14 06:00:20;;;;;;;32.83;13.00;;;10.30;99.90;;;;;;4886568;29;20044;-83
2023/05/14 06:02:48;;;;;;;25.40;10.43;;;10.20;99.90;;;;;;4885131;29;20116;-82
2023/05/14 06:05:14;;;;;;;27.17;10.95;;;10.20;99.90;;;;;;4886509;29;20128;-83
2023/05/14 06:07:41;;;;;;;28.90;11.23;;;10.20;99.90;;;;;;4885424;29;20441;-81
2023/05/14 06:10:08;;;;;;;27.73;11.27;;;10.30;99.90;;;;;;4900183;29;20052;-81
2023/05/14 06:12:34;;;;;;;30.58;11.48;;;10.30;99.90;;;;;;4886107;29;20069;-81
2023/05/14 06:15:01;;;;;;;31.27;11.73;;;10.20;99.90;;;;;;4901239;29;20037;-81
2023/05/14 06:17:29;;;;;;;29.67;10.55;;;10.30;99.90;;;;;;4900431;29;20068;-81
2023/05/14 06:19:56;;;;;;;26.30;10.98;;;10.40;99.90;;;;;;4901138;29;20087;-81
2023/05/14 06:22:22;;;;;;;26.38;11.38;;;10.50;99.90;;;;;;4899324;29;20041;-81
2023/05/14 06:24:49;;;;;;;28.52;10.52;;;10.50;99.90;;;;;;4882633;29;20346;-81
2023/05/14 06:27:16;;;;;;;34.28;11.85;;;10.50;99.90;;;;;;4882514;29;20384;-81
2023/05/14 06:29:42;;;;;;;29.63;11.70;;;10.40;99.90;;;;;;4882020;29;20052;-81
2023/05/14 06:32:09;;;;;;;28.10;11.02;;;10.50;99.90;;;;;;4897574;29;20053;-81
2023/05/14 06:34:36;;;;;;;27.70;11.25;;;10.50;99.90;;;;;;4883342;29;20056;-81
2023/05/14 06:37:03;;;;;;;30.17;11.80;;;10.50;99.90;;;;;;4897094;29;20041;-81
2023/05/14 06:39:29;;;;;;;38.67;13.02;;;10.60;99.90;;;;;;4897818;29;20060;-81
2023/05/14 06:41:56;;;;;;;27.95;11.68;;;10.60;99.90;;;;;;4881879;29;20081;-83
2023/05/14 06:44:23;;;;;;;30.45;11.95;;;10.60;99.90;;;;;;4897670;29;20048;-80
2023/05/14 06:46:49;;;;;;;31.83;12.23;;;10.70;99.90;;;;;;4897932;29;20077;-80
2023/05/14 06:49:16;;;;;;;31.88;12.95;;;10.80;99.90;;;;;;4898125;29;20049;-81
2023/05/14 06:51:43;;;;;;;31.73;12.57;;;10.80;99.90;;;;;;4883474;29;20057;-80
2023/05/14 06:54:09;;;;;;;33.20;13.43;;;10.80;99.90;;;;;;4882536;29;20041;-81
2023/05/14 06:59:51;;;;;;;27.38;11.25;;;10.90;99.90;;;;;;4883642;29;20033;-80
2023/05/14 07:02:18;;;;;;;32.58;12.95;;;10.80;99.90;;;;;;4896654;29;20065;-79
2023/05/14 07:04:44;;;;;;;31.48;12.35;;;10.80;99.90;;;;;;4883122;29;20495;-80
2023/05/14 07:07:14;;;;;;;37.70;12.82;;;10.90;99.90;;;;;;4871020;29;20045;-80
2023/05/14 07:09:41;;;;;;;32.30;11.63;;;11.00;99.90;;;;;;4896406;29;20127;-80
2023/05/14 07:12:07;;;;;;;31.73;12.55;;;11.00;99.90;;;;;;4868971;29;20049;-80
2023/05/14 07:14:34;;;;;;;31.20;12.57;;;10.90;99.90;;;;;;4870149;29;20051;-81
2023/05/14 07:17:01;;;;;;;33.03;13.63;;;11.00;99.90;;;;;;4869242;29;20045;-81
2023/05/14 07:19:28;;;;;;;29.85;12.10;;;11.00;99.90;;;;;;4890104;29;20053;-81
2023/05/14 07:21:55;;;;;;;31.35;12.70;;;11.00;99.90;;;;;;4863424;29;20053;-81
2023/05/14 07:24:23;;;;;;;33.03;13.35;;;11.10;99.90;;;;;;4873706;29;20072;-81
2023/05/14 07:26:49;;;;;;;30.30;12.32;;;11.00;99.90;;;;;;4890301;29;20052;-80
2023/05/14 07:29:16;;;;;;;32.17;13.52;;;10.90;99.90;;;;;;4877759;29;20068;-80
2023/05/14 07:31:43;;;;;;;28.58;11.73;;;10.80;99.90;;;;;;4877519;29;20049;-80
2023/05/14 07:34:10;;;;;;;29.63;11.70;;;11.00;99.90;;;;;;4879483;29;20045;-81
2023/05/14 07:39:06;;;;;;;30.27;12.43;;;11.20;99.90;;;;;;4877936;29;20038;-87
2023/05/14 07:41:33;;;;;;;36.25;13.73;;;11.30;99.90;;;;;;4863157;29;20064;-82
2023/05/14 07:44:00;;;;;;;33.22;12.10;;;11.30;99.90;;;;;;4862779;29;20045;-81
2023/05/14 07:46:27;;;;;;;29.20;11.98;;;11.50;99.90;;;;;;4881349;29;20045;-79
2023/05/14 07:48:54;;;;;;;32.88;11.88;;;11.80;99.90;;;;;;4880885;29;20041;-80
2023/05/14 07:51:21;;;;;;;28.52;12.65;;;11.90;99.90;;;;;;4880872;29;20048;-81
2023/05/14 07:53:48;;;;;;;27.05;11.93;;;12.00;99.90;;;;;;4881788;29;20045;-80
2023/05/14 07:59:00;;;;;;;27.35;11.40;;;12.10;99.90;;;;;;4880162;29;20052;-80
2023/05/14 08:01:27;;;;;;;29.27;12.10;;;12.30;99.90;;;;;;4878670;29;20481;-85
2023/05/14 08:03:54;;;;;;;26.05;11.02;;;12.30;99.90;;;;;;4874993;29;20040;-84
2023/05/14 08:09:07;;;;;;;26.58;11.10;;;12.50;99.90;;;;;;4879974;29;20045;-84
2023/05/14 08:11:34;;;;;;;34.60;11.65;;;12.60;99.90;;;;;;4881315;29;20045;-84
2023/05/14 08:14:00;;;;;;;26.13;11.68;;;12.70;99.90;;;;;;4880903;29;20427;-82
2023/05/14 08:16:28;;;;;;;28.40;10.95;;;12.80;99.90;;;;;;4894528;29;20410;-85
2023/05/14 08:18:55;;;;;;;25.98;12.02;;;12.90;99.90;;;;;;4895087;29;20430;-84
2023/05/14 08:21:22;;;;;;;28.35;12.57;;;12.70;99.90;;;;;;4894823;29;20120;-87
2023/05/14 08:23:49;;;;;;;24.15;11.18;;;12.90;99.90;;;;;;4865043;29;20056;-84
2023/05/14 08:26:16;;;;;;;25.50;11.32;;;13.10;99.90;;;;;;4877053;29;20189;-85
2023/05/14 08:28:43;;;;;;;24.85;10.93;;;13.40;99.90;;;;;;4876079;29;20049;-86
2023/05/14 08:31:10;;;;;;;22.95;11.13;;;13.40;99.90;;;;;;4876765;29;20056;-84
2023/05/14 08:33:37;;;;;;;28.02;12.27;;;13.50;99.90;;;;;;4866182;29;20083;-85
2023/05/14 08:36:04;;;;;;;23.05;11.18;;;13.50;99.90;;;;;;4865132;29;20064;-86
2023/05/14 08:38:31;;;;;;;23.90;11.55;;;13.70;99.90;;;;;;4882743;29;20060;-86
2023/05/14 08:40:58;;;;;;;22.65;11.00;;;13.80;99.90;;;;;;4865847;29;20084;-85
2023/05/14 08:43:28;;;;;;;24.73;11.77;;;13.90;99.90;;;;;;4880204;29;20483;-85
2023/05/14 08:46:06;;;;;;;25.33;12.00;;;14.10;99.90;;;;;;4865471;29;20053;-86
2023/05/14 08:48:37;;;;;;;29.83;11.63;;;14.20;99.90;;;;;;4865211;29;20041;-87
2023/05/14 08:51:03;;;;;;;25.02;12.05;;;14.40;99.90;;;;;;4880748;29;20044;-83
2023/05/14 08:53:30;;;;;;;25.20;12.32;;;14.60;99.90;;;;;;4880806;29;20052;-82
2023/05/14 08:55:59;;;;;;;26.05;12.02;;;15.10;99.90;;;;;;4895132;29;20049;-82
2023/05/14 08:58:27;;;;;;;26.38;12.45;;;15.40;99.90;;;;;;4865171;29;20388;-84
2023/05/14 09:00:54;;;;;;;30.55;13.68;;;15.50;99.90;;;;;;4880183;29;20067;-83
2023/05/14 09:03:20;;;;;;;27.35;13.27;;;15.80;99.90;;;;;;4894916;29;20083;-86
2023/05/14 09:08:35;;;;;;;25.58;12.05;;;15.50;99.90;;;;;;4874837;29;20077;-84
2023/05/14 09:11:02;;;;;;;24.20;11.57;;;15.30;99.90;;;;;;4861519;29;20106;-82
2023/05/14 09:13:28;;;;;;;25.90;12.27;;;15.40;99.90;;;;;;4861580;29;20057;-85
2023/05/14 09:15:55;;;;;;;22.58;12.07;;;15.70;99.90;;;;;;4861593;29;20052;-85
2023/05/14 09:18:22;;;;;;;26.73;12.73;;;15.70;99.90;;;;;;4862599;29;20072;-83
2023/05/14 09:20:48;;;;;;;28.23;13.40;;;15.50;99.90;;;;;;4862382;29;20052;-85
2023/05/14 09:23:15;;;;;;;23.73;11.85;;;15.40;99.90;;;;;;4861754;29;20392;-83
2023/05/14 09:28:29;;;;;;;25.50;12.90;;;15.40;99.90;;;;;;4876195;29;20207;-86
2023/05/14 09:30:56;;;;;;;27.80;12.63;;;15.30;99.90;;;;;;4862173;29;20046;-84
2023/05/14 09:33:23;;;;;;;24.60;11.85;;;15.50;99.90;;;;;;4876777;29;20059;-82
2023/05/14 09:35:50;;;;;;;24.98;12.48;;;15.80;99.90;;;;;;4876237;29;20045;-86
2023/05/14 09:38:17;;;;;;;22.92;11.65;;;15.80;99.90;;;;;;4877502;29;20128;-84
2023/05/14 09:40:44;;;;;;;28.52;12.32;;;15.70;99.90;;;;;;4862594;29;20041;-85
2023/05/14 09:43:10;;;;;;;28.35;12.15;;;15.70;99.90;;;;;;4876341;29;20057;-84
2023/05/14 09:45:37;;;;;;;23.73;11.50;;;16.10;99.90;;;;;;4876802;29;20045;-82
2023/05/14 09:48:04;;;;;;;24.27;12.15;;;16.40;99.90;;;;;;4877762;29;20045;-83
2023/05/14 09:50:31;;;;;;;26.20;12.48;;;16.70;99.90;;;;;;4876093;29;20046;-84
2023/05/14 09:52:57;;;;;;;24.25;11.85;;;17.00;99.90;;;;;;4876868;29;20049;-84
2023/05/14 09:55:24;;;;;;;23.20;12.43;;;17.10;99.90;;;;;;4861276;29;20049;-83
2023/05/14 10:00:37;;;;;;;30.75;13.23;;;17.40;99.90;;;;;;4865639;29;20377;-85
2023/05/14 10:03:04;;;;;;;29.33;13.95;;;17.30;99.90;;;;;;4864351;29;20473;-85
2023/05/14 10:05:31;;;;;;;25.65;12.95;;;17.20;99.90;;;;;;4864559;29;20096;-83
2023/05/14 10:07:58;;;;;;;24.17;11.90;;;17.50;99.90;;;;;;4865400;29;20064;-85
2023/05/14 10:10:25;;;;;;;30.02;14.20;;;17.80;99.90;;;;;;4879191;29;20121;-83
2023/05/14 10:12:53;;;;;;;22.50;12.15;;;18.10;99.90;;;;;;4879710;29;20111;-84
2023/05/14 10:15:19;;;;;;;23.45;13.27;;;18.20;99.90;;;;;;4879135;29;20073;-84
2023/05/14 10:17:47;;;;;;;25.05;13.27;;;18.40;99.90;;;;;;4879860;29;20037;-83
2023/05/14 10:20:15;;;;;;;25.17;13.10;;;18.50;99.90;;;;;;4879907;29;20052;-86
2023/05/14 10:22:42;;;;;;;24.70;12.95;;;18.90;99.90;;;;;;4879221;29;20041;-84
2023/05/14 10:25:08;;;;;;;25.38;12.73;;;18.80;99.90;;;;;;4879988;29;20215;-87
2023/05/14 10:27:37;;;;;;;25.52;12.77;;;18.70;99.90;;;;;;4879714;29;20045;-85
2023/05/14 10:30:04;;;;;;;26.40;14.13;;;19.10;99.90;;;;;;4880629;29;20046;-86
2023/05/14 10:32:31;;;;;;;27.52;13.20;;;19.00;99.90;;;;;;4882657;29;20048;-85
2023/05/14 10:34:58;;;;;;;23.23;13.23;;;19.10;99.90;;;;;;4897961;29;20052;-85
2023/05/14 10:40:10;;;;;;;23.70;13.75;;;19.70;99.90;;;;;;4882715;29;20053;-87
2023/05/14 10:42:42;;;;;;;23.45;13.25;;;20.00;99.90;;;;;;4897494;29;20045;-86
2023/05/14 10:45:09;;;;;;;24.27;15.23;;;20.20;99.90;;;;;;4882456;29;20099;-84
2023/05/14 10:47:35;;;;;;;21.23;11.85;;;20.40;99.90;;;;;;4882409;29;20045;-83
2023/05/14 10:50:02;;;;;;;20.77;11.98;;;20.60;99.90;;;;;;4897305;29;20045;-85
2023/05/14 10:52:29;;;;;;;21.55;12.73;;;20.80;99.90;;;;;;4897346;29;20052;-84
2023/05/14 10:54:55;;;;;;;20.92;13.40;;;21.00;99.90;;;;;;4897748;29;20048;-84
2023/05/14 10:57:25;;;;;;;25.65;12.55;;;21.20;99.90;;;;;;4897188;29;20045;-85
2023/05/14 10:59:55;;;;;;;19.58;12.85;;;21.10;99.90;;;;;;4883314;29;20045;-85
2023/05/14 11:02:21;;;;;;;22.23;13.68;;;21.40;99.90;;;;;;4896718;29;20056;-83
2023/05/14 11:04:48;;;;;;;24.60;14.35;;;21.70;99.90;;;;;;4866807;29;20072;-83
2023/05/14 11:07:17;;;;;;;22.40;12.52;;;21.90;99.90;;;;;;4883140;29;20052;-83
2023/05/14 11:09:43;;;;;;;20.42;14.02;;;22.40;99.90;;;;;;4865334;29;20041;-85
2023/05/14 11:12:10;;;;;;;20.42;14.93;;;22.80;99.90;;;;;;4866705;29;20136;-84
2023/05/14 11:14:37;;;;;;;22.13;13.57;;;23.10;99.90;;;;;;4866647;29;20456;-83
2023/05/14 11:17:05;;;;;;;17.60;14.02;;;23.40;99.90;;;;;;4866068;29;20053;-84
2023/05/14 11:19:31;;;;;;;18.30;14.05;;;23.20;99.90;;;;;;4866579;29;20068;-86
2023/05/14 11:22:00;;;;;;;18.50;13.23;;;23.00;99.90;;;;;;4896980;29;20053;-84
2023/05/14 11:24:26;;;;;;;16.45;13.43;;;22.80;99.90;;;;;;4897196;29;20503;-84
2023/05/14 11:29:41;;;;;;;20.92;12.82;;;23.50;99.90;;;;;;4881015;29;20381;-84
2023/05/14 11:32:08;;;;;;;20.88;16.52;;;23.90;99.90;;;;;;4882419;29;20477;-85
2023/05/14 11:34:36;;;;;;;17.85;13.80;;;24.00;99.90;;;;;;4897152;29;20357;-86
2023/05/14 11:37:04;;;;;;;18.95;12.02;;;24.10;99.90;;;;;;4880712;29;20053;-87
2023/05/14 11:39:31;;;;;;;17.13;13.82;;;24.20;99.90;;;;;;4881353;29;20063;-85
2023/05/14 11:41:58;;;;;;;17.90;14.75;;;24.20;99.40;;;;;;4881244;29;20059;-83
2023/05/14 11:44:24;;;;;;;15.60;12.73;;;24.70;99.30;;;;;;4897387;29;20049;-81
2023/05/14 11:49:39;;;;;;;15.38;12.23;;;25.20;97.70;;;;;;4881847;29;20056;-84
2023/05/14 11:52:06;;;;;;;15.63;12.48;;;25.30;96.10;;;;;;4881478;29;20052;-83
2023/05/14 11:54:32;;;;;;;16.00;12.15;;;25.50;96.10;;;;;;4865691;29;20069;-83
2023/05/14 11:57:00;;;;;;;14.57;11.68;;;25.10;94.70;;;;;;4881701;29;20377;-83
2023/05/14 11:59:27;;;;;;;15.88;12.07;;;25.20;95.00;;;;;;4896795;29;20386;-85
2023/05/14 12:01:54;;;;;;;14.88;12.32;;;25.50;94.20;;;;;;4895628;29;20069;-85
2023/05/14 12:04:21;;;;;;;15.75;11.90;;;25.70;92.70;;;;;;4865426;29;20052;-86
2023/05/14 12:06:50;;;;;;;16.35;12.50;;;25.60;92.30;;;;;;4865616;29;20045;-85
2023/05/14 12:09:17;;;;;;;16.48;12.57;;;25.10;90.20;;;;;;4864924;29;20059;-85
2023/05/14 12:11:45;;;;;;;15.10;11.65;;;25.30;91.70;;;;;;4865819;29;20052;-86
2023/05/14 12:14:12;;;;;;;16.23;11.40;;;26.00;93.00;;;;;;4880867;29;20041;-87
2023/05/14 12:19:26;;;;;;;13.38;10.90;;;27.30;88.80;;;;;;4881105;29;20389;-86
2023/05/14 12:21:53;;;;;;;14.35;10.13;;;27.60;86.70;;;;;;4895684;29;20485;-85
2023/05/14 12:24:19;;;;;;;14.27;11.23;;;27.80;90.10;;;;;;4880817;29;20053;-84
2023/05/14 12:29:32;;;;;;;16.63;10.88;;;27.60;80.00;;;;;;4880954;29;20071;-85
2023/05/14 12:31:59;;;;;;;16.15;9.60;;;27.40;81.40;;;;;;4865451;29;20045;-84
2023/05/14 12:34:26;;;;;;;12.35;10.40;;;27.30;79.30;;;;;;4881279;29;20845;-85
2023/05/14 12:36:55;;;;;;;14.00;11.27;;;26.90;79.90;;;;;;4879993;29;20043;-86
2023/05/14 12:39:21;;;;;;;12.25;9.40;;;26.80;80.70;;;;;;4896233;29;20071;-84
2023/05/14 12:41:48;;;;;;;12.00;9.02;;;27.40;78.70;;;;;;4879961;29;20049;-86
2023/05/14 12:44:15;;;;;;;14.82;9.43;;;27.30;76.30;;;;;;4881112;29;20045;-88
2023/05/14 12:49:28;;;;;;;12.13;9.52;;;27.90;79.70;;;;;;4880650;29;20069;-86
2023/05/14 12:51:55;;;;;;;13.00;9.85;;;27.90;76.30;;;;;;4880297;29;20045;-86
2023/05/14 12:54:42;;;;;;;14.73;10.35;;;27.80;79.40;;;;;;4894639;29;20072;-86
2023/05/14 13:00:14;;;;;;;14.52;10.85;;;28.20;74.10;;;;;;4881486;29;20041;-83
2023/05/14 13:02:40;;;;;;;13.77;9.32;;;28.20;73.70;;;;;;4882661;29;20057;-82
2023/05/14 13:05:09;;;;;;;12.15;9.90;;;28.00;72.20;;;;;;4881365;29;20053;-86